createdAt,value
2022-09-23T00:00:48.802Z,8.06
2022-09-23T00:03:16.261Z,8.04
2022-09-23T00:05:43.176Z,8.02
2022-09-23T00:08:11.302Z,8.08
2022-09-23T00:10:39.198Z,8.21
2022-09-23T00:13:05.975Z,8.28
2022-09-23T00:15:34.065Z,8.29
2022-09-23T00:18:00.589Z,8.28
2022-09-23T00:20:26.831Z,8.31
2022-09-23T00:22:53.384Z,8.31
2022-09-23T00:25:20.047Z,8.42
2022-09-23T00:27:46.358Z,8.47
2022-09-23T00:30:12.824Z,8.49
2022-09-23T00:32:40.543Z,8.52
2022-09-23T00:35:08.671Z,8.57
2022-09-23T00:37:34.995Z,8.44
2022-09-23T00:40:02.637Z,8.46
2022-09-23T00:42:29.021Z,8.51
2022-09-23T00:44:59.783Z,8.64
2022-09-23T00:47:59.406Z,8.63
2022-09-23T00:50:36.393Z,8.63
2022-09-23T00:53:09.774Z,8.60
2022-09-23T00:55:46.840Z,8.61
2022-09-23T00:58:17.768Z,8.63
2022-09-23T01:00:46.386Z,8.54
2022-09-23T01:03:14.263Z,8.61
2022-09-23T01:05:41.718Z,8.38
2022-09-23T01:08:10.187Z,8.39
2022-09-23T01:10:47.453Z,8.44
2022-09-23T01:13:20.723Z,8.40
2022-09-23T01:15:57.023Z,8.30
2022-09-23T01:18:43.520Z,8.37
2022-09-23T01:21:25.616Z,8.26
2022-09-23T01:24:02.318Z,8.33
2022-09-23T01:27:01.519Z,8.34
2022-09-23T01:29:36.782Z,8.33
2022-09-23T01:32:26.218Z,8.36
2022-09-23T01:35:04.937Z,8.39
2022-09-23T01:37:48.739Z,8.46
2022-09-23T01:40:46.060Z,8.37
2022-09-23T01:43:16.332Z,8.51
2022-09-23T01:45:46.550Z,8.46
2022-09-23T01:48:22.515Z,8.45
2022-09-23T01:51:00.718Z,8.31
2022-09-23T01:53:33.066Z,8.37
2022-09-23T01:56:03.789Z,8.40
2022-09-23T01:58:41.137Z,8.39
2022-09-23T02:01:08.809Z,8.39
2022-09-23T02:03:59.835Z,8.37
2022-09-23T02:06:31.604Z,8.35
2022-09-23T02:09:00.697Z,8.32
2022-09-23T02:11:27.487Z,8.31
2022-09-23T02:14:07.527Z,8.27
2022-09-23T02:16:39.457Z,8.21
2022-09-23T02:19:12.754Z,8.17
2022-09-23T02:21:43.842Z,8.10
2022-09-23T02:24:30.994Z,8.16
2022-09-23T02:27:18.530Z,8.14
2022-09-23T02:30:08.868Z,8.16
2022-09-23T02:32:54.867Z,8.05
2022-09-23T02:35:32.851Z,8.12
2022-09-23T02:38:25.936Z,8.09
2022-09-23T02:41:09.526Z,8.11
2022-09-23T02:43:48.598Z,8.16
2022-09-23T02:46:15.204Z,8.20
2022-09-23T02:48:45.619Z,8.21
2022-09-23T02:51:12.983Z,8.20
2022-09-23T02:53:39.704Z,8.25
2022-09-23T02:56:19.015Z,8.25
2022-09-23T02:58:46.980Z,8.28
2022-09-23T03:01:32.980Z,8.31
2022-09-23T03:04:38.407Z,8.33
2022-09-23T03:07:16.852Z,8.34
2022-09-23T03:09:56.137Z,8.23
2022-09-23T03:12:36.106Z,8.33
2022-09-23T03:15:09.601Z,8.31
2022-09-23T03:17:58.098Z,8.29
2022-09-23T03:20:34.165Z,8.29
2022-09-23T03:23:06.630Z,8.26
2022-09-23T03:25:38.573Z,8.27
2022-09-23T03:28:06.319Z,8.26
2022-09-23T03:30:35.687Z,8.23
2022-09-23T03:33:04.179Z,8.21
2022-09-23T03:35:33.135Z,8.19
2022-09-23T03:38:17.781Z,8.16
2022-09-23T03:40:47.708Z,8.16
2022-09-23T03:43:14.232Z,8.13
2022-09-23T03:45:42.611Z,8.08
2022-09-23T03:48:09.297Z,8.07
2022-09-23T03:50:36.216Z,8.04
2022-09-23T03:53:02.449Z,8.02
2022-09-23T03:55:28.969Z,8.03
2022-09-23T03:57:55.663Z,8.04
2022-09-23T04:00:21.937Z,8.00
2022-09-23T04:02:49.745Z,7.98
2022-09-23T04:05:16.036Z,7.99
2022-09-23T04:07:42.574Z,7.98
2022-09-23T04:10:09.973Z,8.02
2022-09-23T04:12:37.066Z,7.97
2022-09-23T04:15:03.981Z,8.01
2022-09-23T04:17:30.506Z,8.04
2022-09-23T04:19:56.721Z,8.08
2022-09-23T04:22:23.019Z,7.98
2022-09-23T04:24:49.593Z,8.09
2022-09-23T04:27:16.799Z,8.09
2022-09-23T04:29:43.068Z,7.99
2022-09-23T04:32:10.186Z,8.16
2022-09-23T04:34:36.465Z,8.19
2022-09-23T04:37:03.047Z,8.20
2022-09-23T04:39:29.649Z,8.09
2022-09-23T04:41:55.930Z,8.23
2022-09-23T04:44:22.193Z,8.20
2022-09-23T04:46:49.276Z,8.23
2022-09-23T04:49:16.427Z,8.23
2022-09-23T04:51:43.642Z,8.34
2022-09-23T04:54:11.792Z,8.35
2022-09-23T04:56:38.273Z,8.38
2022-09-23T04:59:04.524Z,8.40
2022-09-23T05:01:34.485Z,8.44
2022-09-23T05:04:03.464Z,8.48
2022-09-23T05:06:30.228Z,8.51
2022-09-23T05:08:57.737Z,8.48
2022-09-23T05:11:25.279Z,8.61
2022-09-23T05:13:53.850Z,8.66
2022-09-23T05:16:22.092Z,8.61
2022-09-23T05:18:49.271Z,8.66
2022-09-23T05:21:18.286Z,8.75
2022-09-23T05:23:50.021Z,8.83
2022-09-23T05:26:16.512Z,8.65
2022-09-23T05:28:42.904Z,8.90
2022-09-23T05:31:17.162Z,8.98
2022-09-23T05:33:54.155Z,9.12
2022-09-23T05:36:21.949Z,9.23
2022-09-23T05:38:51.851Z,9.33
2022-09-23T05:41:19.962Z,9.47
2022-09-23T05:43:47.375Z,9.59
2022-09-23T05:46:16.247Z,9.69
2022-09-23T05:48:44.034Z,9.90
2022-09-23T05:51:14.064Z,10.03
2022-09-23T05:53:41.703Z,9.93
2022-09-23T05:56:08.125Z,10.06
2022-09-23T05:58:34.805Z,10.21
2022-09-23T06:01:01.062Z,10.28
2022-09-23T06:03:27.653Z,10.36
2022-09-23T06:05:55.500Z,10.35
2022-09-23T06:08:22.698Z,10.40
2022-09-23T06:10:53.611Z,10.50
2022-09-23T06:13:20.720Z,10.50
2022-09-23T06:15:47.008Z,10.58
2022-09-23T06:18:13.549Z,10.62
2022-09-23T06:20:40.120Z,10.67
2022-09-23T06:23:10.673Z,10.71
2022-09-23T06:25:40.751Z,10.76
2022-09-23T06:28:10.769Z,10.76
2022-09-23T06:30:37.301Z,10.91
2022-09-23T06:33:03.601Z,10.84
2022-09-23T06:35:32.473Z,11.11
2022-09-23T06:37:59.201Z,11.25
2022-09-23T06:40:25.730Z,11.36
2022-09-23T06:43:01.606Z,11.43
2022-09-23T06:45:28.517Z,11.52
2022-09-23T06:47:58.606Z,11.66
2022-09-23T06:50:29.579Z,11.88
2022-09-23T06:52:56.861Z,12.07
2022-09-23T06:55:24.556Z,12.49
2022-09-23T06:57:51.175Z,12.46
2022-09-23T07:00:17.798Z,12.57
2022-09-23T07:02:44.200Z,12.76
2022-09-23T07:05:10.616Z,12.95
2022-09-23T07:07:38.587Z,13.28
2022-09-23T07:10:06.335Z,13.38
2022-09-23T07:12:33.562Z,13.69
2022-09-23T07:15:00.080Z,13.91
2022-09-23T07:17:26.556Z,13.68
2022-09-23T07:19:54.965Z,13.97
2022-09-23T07:22:22.196Z,13.83
2022-09-23T07:24:48.440Z,13.80
2022-09-23T07:27:19.912Z,13.86
2022-09-23T07:29:50.317Z,13.92
2022-09-23T07:32:16.889Z,14.10
2022-09-23T07:34:44.363Z,14.09
2022-09-23T07:37:10.883Z,14.23
2022-09-23T07:39:37.433Z,14.34
2022-09-23T07:42:05.244Z,14.86
2022-09-23T07:44:32.294Z,14.53
2022-09-23T07:47:00.026Z,14.70
2022-09-23T07:49:28.355Z,14.93
2022-09-23T07:51:56.227Z,15.00
2022-09-23T07:54:25.461Z,14.94
2022-09-23T07:56:51.934Z,15.45
2022-09-23T07:59:18.816Z,15.96
2022-09-23T08:01:50.567Z,16.53
2022-09-23T08:04:30.988Z,17.02
2022-09-23T08:07:04.686Z,17.99
2022-09-23T08:09:39.388Z,18.48
2022-09-23T08:12:05.804Z,18.55
2022-09-23T08:14:34.071Z,17.85
2022-09-23T08:17:00.493Z,18.09
2022-09-23T08:19:26.867Z,19.39
2022-09-23T08:21:54.527Z,19.68
2022-09-23T08:24:24.191Z,19.46
2022-09-23T08:26:54.728Z,19.75
2022-09-23T08:29:23.034Z,20.54
2022-09-23T08:31:49.906Z,20.10
2022-09-23T08:34:17.565Z,21.29
2022-09-23T08:36:44.655Z,21.92
2022-09-23T08:39:17.674Z,22.09
2022-09-23T08:41:58.475Z,23.00
2022-09-23T08:44:45.600Z,22.00
2022-09-23T08:47:50.731Z,20.83
2022-09-23T08:50:22.513Z,18.54
2022-09-23T08:52:55.196Z,17.94
2022-09-23T08:55:29.659Z,18.25
2022-09-23T08:58:24.548Z,20.74
2022-09-23T09:01:00.203Z,20.84
2022-09-23T09:03:34.282Z,21.69
2022-09-23T09:06:00.920Z,22.34
2022-09-23T09:08:35.695Z,23.29
2022-09-23T09:11:02.886Z,22.52
2022-09-23T09:13:35.090Z,20.20
2022-09-23T09:16:36.592Z,19.55
2022-09-23T09:19:21.757Z,18.46
2022-09-23T09:21:52.252Z,16.91
2022-09-23T09:24:24.069Z,16.43
2022-09-23T09:26:50.385Z,16.34
2022-09-23T09:29:34.289Z,18.60
2022-09-23T09:32:17.917Z,19.96
2022-09-23T09:34:54.958Z,21.14
2022-09-23T09:37:41.832Z,22.52
2022-09-23T09:40:17.134Z,23.83
2022-09-23T09:42:47.793Z,24.49
2022-09-23T09:45:26.254Z,24.03
2022-09-23T09:48:11.110Z,22.72
2022-09-23T09:50:52.115Z,21.79
2022-09-23T09:53:28.230Z,19.75
2022-09-23T09:56:06.148Z,18.57
2022-09-23T09:58:43.772Z,19.67
2022-09-23T10:01:22.058Z,21.95
2022-09-23T10:03:53.067Z,23.49
2022-09-23T10:06:24.369Z,24.11
2022-09-23T10:09:03.141Z,25.24
2022-09-23T10:11:30.104Z,25.59
2022-09-23T10:14:00.286Z,25.45
2022-09-23T10:16:27.535Z,23.56
2022-09-23T10:18:56.869Z,23.95
2022-09-23T10:21:27.892Z,22.15
2022-09-23T10:23:58.063Z,20.84
2022-09-23T10:26:33.305Z,19.25
2022-09-23T10:29:04.973Z,19.90
2022-09-23T10:31:33.598Z,22.22
2022-09-23T10:34:20.817Z,23.28
2022-09-23T10:36:54.913Z,23.42
2022-09-23T10:39:40.000Z,24.44
2022-09-23T10:42:37.808Z,24.64
2022-09-23T10:45:43.877Z,23.10
2022-09-23T10:48:13.556Z,21.14
2022-09-23T10:50:44.895Z,19.63
2022-09-23T10:53:16.724Z,19.06
2022-09-23T10:55:54.981Z,18.21
2022-09-23T10:58:41.043Z,17.80
2022-09-23T11:01:22.397Z,17.38
2022-09-23T11:04:32.067Z,16.94
2022-09-23T11:07:39.205Z,16.60
2022-09-23T11:10:18.575Z,16.43
2022-09-23T11:13:40.593Z,16.40
2022-09-23T11:16:24.958Z,15.86
2022-09-23T11:18:57.945Z,15.88
2022-09-23T11:21:31.776Z,17.16
2022-09-23T11:24:28.058Z,19.00
2022-09-23T11:27:26.040Z,17.48
2022-09-23T11:30:16.635Z,17.11
2022-09-23T11:33:05.076Z,17.13
2022-09-23T11:35:41.680Z,17.02
2022-09-23T11:38:12.375Z,16.98
2022-09-23T11:40:43.820Z,17.34
2022-09-23T11:43:19.855Z,17.41
2022-09-23T11:45:49.168Z,17.43
2022-09-23T11:48:18.303Z,17.46
2022-09-23T11:50:54.353Z,16.89
2022-09-23T11:53:26.019Z,16.77
2022-09-23T11:56:16.823Z,16.42
2022-09-23T11:58:55.911Z,16.06
2022-09-23T12:01:37.648Z,15.06
2022-09-23T12:04:24.044Z,14.21
2022-09-23T12:06:57.094Z,13.60
2022-09-23T12:09:58.483Z,13.35
2022-09-23T12:12:48.793Z,13.06
2022-09-23T12:15:58.305Z,12.77
2022-09-23T12:18:49.189Z,12.25
2022-09-23T12:21:49.201Z,11.57
2022-09-23T12:24:26.322Z,11.15
2022-09-23T12:26:56.182Z,10.86
2022-09-23T12:29:25.881Z,10.69
2022-09-23T12:31:52.803Z,10.63
2022-09-23T12:34:36.843Z,10.57
2022-09-23T12:37:04.248Z,10.56
2022-09-23T12:39:32.636Z,10.42
2022-09-23T12:42:04.743Z,10.35
2022-09-23T12:44:40.627Z,10.31
2022-09-23T12:47:21.226Z,10.43
2022-09-23T12:49:48.477Z,10.43
2022-09-23T12:52:17.816Z,10.48
2022-09-23T12:54:46.304Z,10.53
2022-09-23T12:57:12.803Z,10.61
2022-09-23T13:00:25.674Z,10.67
2022-09-23T13:03:13.648Z,10.79
2022-09-23T13:06:01.413Z,10.66
2022-09-23T13:08:27.971Z,10.91
2022-09-23T13:11:00.623Z,10.97
2022-09-23T13:13:31.669Z,11.08
2022-09-23T13:16:13.798Z,11.07
2022-09-23T13:18:54.065Z,11.18
2022-09-23T13:21:42.186Z,11.40
2022-09-23T13:24:41.215Z,11.51
2022-09-23T13:27:21.225Z,11.69
2022-09-23T13:30:26.384Z,11.80
2022-09-23T13:33:10.836Z,11.91
2022-09-23T13:35:43.616Z,11.97
2022-09-23T13:38:32.238Z,12.01
2022-09-23T13:41:10.692Z,12.03
2022-09-23T13:43:51.444Z,12.00
2022-09-23T13:46:23.254Z,12.10
2022-09-23T13:48:52.240Z,12.19
2022-09-23T13:51:24.510Z,12.31
2022-09-23T13:53:54.378Z,12.40
2022-09-23T13:56:21.135Z,12.47
2022-09-23T13:58:48.008Z,12.38
2022-09-23T14:01:24.429Z,12.60
2022-09-23T14:03:51.472Z,12.67
2022-09-23T14:06:17.934Z,12.95
2022-09-23T14:08:49.841Z,13.03
2022-09-23T14:11:18.041Z,13.50
2022-09-23T14:13:45.547Z,13.57
2022-09-23T14:16:14.962Z,13.81
2022-09-23T14:18:45.098Z,13.95
2022-09-23T14:21:50.488Z,14.04
2022-09-23T14:24:25.303Z,14.42
2022-09-23T14:27:06.741Z,14.31
2022-09-23T14:29:36.529Z,14.37
2022-09-23T14:32:11.499Z,14.54
2022-09-23T14:35:01.132Z,14.62
2022-09-23T14:37:55.124Z,14.79
2022-09-23T14:40:38.655Z,14.73
2022-09-23T14:43:18.181Z,14.55
2022-09-23T14:45:47.382Z,14.32
2022-09-23T14:48:18.280Z,14.05
2022-09-23T14:51:10.818Z,13.86
2022-09-23T14:53:43.635Z,13.71
2022-09-23T14:56:12.942Z,13.63
2022-09-23T14:58:53.541Z,13.34
2022-09-23T15:01:33.764Z,13.28
2022-09-23T15:04:13.721Z,13.14
2022-09-23T15:06:55.759Z,13.05
2022-09-23T15:09:27.209Z,12.95
2022-09-23T15:11:57.978Z,12.85
2022-09-23T15:14:37.648Z,12.76
2022-09-23T15:17:11.616Z,12.70
2022-09-23T15:19:38.060Z,12.49
2022-09-23T15:22:07.552Z,12.57
2022-09-23T15:24:38.203Z,12.52
2022-09-23T15:27:11.919Z,12.47
2022-09-23T15:29:38.746Z,12.38
2022-09-23T15:32:07.822Z,12.36
2022-09-23T15:34:34.079Z,12.37
2022-09-23T15:37:00.970Z,12.30
2022-09-23T15:39:35.771Z,12.33
2022-09-23T15:42:02.168Z,12.26
2022-09-23T15:44:29.874Z,12.21
2022-09-23T15:46:59.086Z,12.07
2022-09-23T15:49:32.048Z,12.09
2022-09-23T15:51:59.760Z,12.05
2022-09-23T15:54:26.499Z,11.98
2022-09-23T15:56:52.779Z,11.92
2022-09-23T15:59:21.390Z,11.87
2022-09-23T16:01:47.945Z,11.81
2022-09-23T16:04:16.890Z,11.78
2022-09-23T16:06:44.531Z,11.63
2022-09-23T16:09:13.322Z,11.61
2022-09-23T16:11:43.518Z,11.60
2022-09-23T16:14:19.313Z,11.56
2022-09-23T16:16:47.774Z,11.52
2022-09-23T16:19:15.614Z,11.48
2022-09-23T16:21:41.940Z,11.44
2022-09-23T16:24:17.136Z,11.38
2022-09-23T16:26:44.503Z,11.34
2022-09-23T16:29:11.676Z,11.29
2022-09-23T16:31:38.668Z,11.25
2022-09-23T16:34:05.483Z,11.07
2022-09-23T16:36:40.573Z,11.20
2022-09-23T16:39:09.882Z,11.22
2022-09-23T16:41:36.916Z,11.05
2022-09-23T16:44:05.407Z,11.16
2022-09-23T16:46:31.916Z,11.12
2022-09-23T16:48:59.255Z,11.12
2022-09-23T16:51:27.706Z,11.05
2022-09-23T16:53:55.416Z,11.05
2022-09-23T16:56:28.887Z,11.02
2022-09-23T16:58:56.018Z,10.90
2022-09-23T17:01:44.176Z,10.91
2022-09-23T17:04:10.781Z,10.89
2022-09-23T17:06:48.331Z,10.88
2022-09-23T17:09:14.566Z,10.96
2022-09-23T17:11:41.348Z,10.91
2022-09-23T17:14:07.580Z,10.95
2022-09-23T17:16:34.858Z,10.84
2022-09-23T17:19:09.720Z,10.93
2022-09-23T17:21:36.147Z,10.94
2022-09-23T17:24:02.760Z,10.91
2022-09-23T17:26:29.311Z,10.91
2022-09-23T17:28:56.676Z,10.75
2022-09-23T17:31:24.632Z,10.84
2022-09-23T17:33:52.100Z,10.79
2022-09-23T17:36:18.861Z,10.75
2022-09-23T17:38:46.334Z,10.59
2022-09-23T17:41:13.330Z,10.64
2022-09-23T17:43:40.212Z,10.60
2022-09-23T17:46:12.852Z,10.55
2022-09-23T17:48:41.340Z,10.42
2022-09-23T17:51:11.435Z,10.43
2022-09-23T17:53:38.980Z,10.38
2022-09-23T17:56:12.348Z,10.32
2022-09-23T17:58:39.184Z,10.27
2022-09-23T18:01:09.341Z,10.25
2022-09-23T18:03:35.983Z,10.20
2022-09-23T18:06:10.439Z,10.19
2022-09-23T18:08:37.227Z,10.14
2022-09-23T18:11:19.173Z,10.11
2022-09-23T18:13:56.408Z,10.14
2022-09-23T18:16:25.084Z,10.14
2022-09-23T18:18:53.557Z,10.14
2022-09-23T18:21:21.190Z,10.08
2022-09-23T18:23:48.224Z,10.15
2022-09-23T18:26:23.054Z,10.21
2022-09-23T18:28:50.029Z,10.20
2022-09-23T18:31:16.689Z,10.18
2022-09-23T18:33:42.983Z,10.12
2022-09-23T18:36:09.684Z,10.14
2022-09-23T18:38:36.246Z,10.15
2022-09-23T18:41:02.554Z,10.05
2022-09-23T18:43:37.440Z,10.04
2022-09-23T18:46:09.430Z,10.00
2022-09-23T18:48:54.253Z,9.95
2022-09-23T18:51:22.397Z,9.96
2022-09-23T18:53:50.179Z,10.03
2022-09-23T18:56:21.019Z,10.01
2022-09-23T18:58:48.677Z,9.90
2022-09-23T19:01:16.048Z,9.85
2022-09-23T19:03:42.787Z,9.80
2022-09-23T19:06:21.240Z,9.85
2022-09-23T19:08:50.577Z,9.64
2022-09-23T19:11:17.106Z,9.66
2022-09-23T19:13:43.336Z,9.57
2022-09-23T19:16:14.591Z,9.54
2022-09-23T19:18:42.683Z,9.51
2022-09-23T19:21:12.593Z,9.41
2022-09-23T19:23:40.614Z,9.32
2022-09-23T19:26:12.778Z,9.26
2022-09-23T19:28:39.342Z,9.18
2022-09-23T19:31:16.634Z,9.03
2022-09-23T19:33:47.295Z,9.00
2022-09-23T19:36:16.083Z,8.94
2022-09-23T19:38:44.357Z,8.85
2022-09-23T19:41:11.216Z,8.74
2022-09-23T19:43:37.813Z,8.64
2022-09-23T19:46:05.626Z,8.47
2022-09-23T19:48:31.875Z,8.59
2022-09-23T19:50:58.120Z,8.48
2022-09-23T19:53:28.015Z,8.44
2022-09-23T19:55:56.054Z,8.48
2022-09-23T19:58:23.091Z,8.44
2022-09-23T20:00:49.676Z,8.31
2022-09-23T20:03:17.608Z,8.35
2022-09-23T20:05:43.925Z,8.25
2022-09-23T20:08:10.172Z,8.20
2022-09-23T20:10:39.397Z,8.25
2022-09-23T20:13:05.597Z,8.10
2022-09-23T20:15:31.821Z,8.15
2022-09-23T20:17:58.351Z,8.11
2022-09-23T20:20:24.565Z,8.00
2022-09-23T20:22:52.112Z,8.04
2022-09-23T20:25:18.610Z,7.99
2022-09-23T20:27:49.444Z,7.95
2022-09-23T20:30:16.081Z,7.85
2022-09-23T20:32:44.782Z,7.90
2022-09-23T20:35:11.261Z,7.87
2022-09-23T20:37:37.503Z,7.85
2022-09-23T20:40:04.625Z,7.84
2022-09-23T20:42:31.092Z,7.62
2022-09-23T20:44:57.334Z,7.80
2022-09-23T20:47:24.524Z,7.75
2022-09-23T20:49:50.931Z,7.81
2022-09-23T20:52:18.061Z,7.69
2022-09-23T20:54:44.631Z,7.85
2022-09-23T20:57:12.612Z,7.91
2022-09-23T20:59:40.157Z,7.84
2022-09-23T21:02:07.645Z,7.95
2022-09-23T21:04:34.927Z,7.99
2022-09-23T21:07:01.170Z,7.91
2022-09-23T21:09:29.088Z,8.05
2022-09-23T21:11:55.670Z,8.09
2022-09-23T21:14:22.415Z,8.06
2022-09-23T21:16:50.434Z,8.23
2022-09-23T21:19:20.120Z,8.23
2022-09-23T21:21:46.402Z,8.41
2022-09-23T21:24:43.766Z,8.44
2022-09-23T21:26:59.398Z,8.48
2022-09-23T21:29:25.921Z,8.54
2022-09-23T21:31:52.189Z,8.60
2022-09-23T21:34:19.246Z,8.59
2022-09-23T21:36:48.031Z,8.64
2022-09-23T21:39:14.539Z,8.75
2022-09-23T21:41:40.865Z,8.68
2022-09-23T21:44:08.345Z,8.78
2022-09-23T21:46:35.174Z,8.75
2022-09-23T21:49:03.601Z,8.72
2022-09-23T21:51:37.501Z,8.67
2022-09-23T21:54:04.054Z,8.61
2022-09-23T21:56:32.840Z,8.59
2022-09-23T21:59:02.377Z,8.54
2022-09-23T22:01:34.673Z,8.53
2022-09-23T22:04:08.186Z,8.59
2022-09-23T22:06:37.982Z,8.60
2022-09-23T22:09:09.797Z,8.60
2022-09-23T22:11:55.669Z,8.58
2022-09-23T22:14:25.797Z,8.43
2022-09-23T22:16:57.475Z,8.57
2022-09-23T22:19:35.168Z,8.59
2022-09-23T22:22:05.628Z,8.50
2022-09-23T22:24:32.147Z,8.59
2022-09-23T22:26:58.384Z,8.61
2022-09-23T22:29:43.164Z,8.54
2022-09-23T22:32:30.142Z,8.57
2022-09-23T22:34:56.891Z,8.56
2022-09-23T22:37:30.344Z,8.62
2022-09-23T22:39:56.684Z,8.80
2022-09-23T22:42:23.016Z,8.81
2022-09-23T22:44:50.539Z,8.75
2022-09-23T22:47:20.471Z,8.79
2022-09-23T22:49:47.220Z,8.84
2022-09-23T22:52:15.848Z,8.86
2022-09-23T22:54:42.418Z,8.78
2022-09-23T22:57:09.276Z,8.82
2022-09-23T22:59:37.279Z,8.84
2022-09-23T23:02:04.009Z,8.88
2022-09-23T23:04:31.046Z,9.00
2022-09-23T23:06:58.784Z,8.94
2022-09-23T23:09:25.330Z,8.98
2022-09-23T23:11:51.556Z,8.97
2022-09-23T23:14:18.464Z,8.95
2022-09-23T23:16:46.033Z,8.92
2022-09-23T23:19:14.469Z,8.89
2022-09-23T23:21:44.772Z,8.85
2022-09-23T23:24:18.637Z,8.81
2022-09-23T23:26:45.603Z,8.72
2022-09-23T23:29:13.334Z,8.79
2022-09-23T23:31:40.065Z,8.71
2022-09-23T23:34:10.428Z,8.77
2022-09-23T23:36:36.687Z,8.76
2022-09-23T23:39:02.974Z,8.62
2022-09-23T23:41:29.523Z,8.72
2022-09-23T23:43:58.308Z,8.62
2022-09-23T23:46:26.425Z,8.67
2022-09-23T23:48:54.075Z,8.70
2022-09-23T23:51:20.866Z,8.75
2022-09-23T23:53:48.259Z,8.79
2022-09-23T23:56:17.555Z,8.85
2022-09-23T23:58:44.256Z,8.92
